sensor_id;sensor_type;location;lat;lon;timestamp;temperature;humidity
21031;DHT22;61072;47.808;7.636;2023-11-19T00:01:44;11.20;99.90
21031;DHT22;61072;47.808;7.636;2023-11-19T00:04:13;11.20;99.90
21031;DHT22;61072;47.808;7.636;2023-11-19T00:06:40;11.20;99.90
21031;DHT22;61072;47.808;7.636;2023-11-19T00:09:07;11.30;99.90
21031;DHT22;61072;47.808;7.636;2023-11-19T00:11:34;11.30;99.90
21031;DHT22;61072;47.808;7.636;2023-11-19T00:14:01;11.30;99.90
21031;DHT22;61072;47.808;7.636;2023-11-19T00:16:28;11.40;99.90
21031;DHT22;61072;47.808;7.636;2023-11-19T00:18:54;11.50;99.90
21031;DHT22;61072;47.808;7.636;2023-11-19T00:21:21;11.50;99.90
21031;DHT22;61072;47.808;7.636;2023-11-19T00:23:48;11.50;99.90
21031;DHT22;61072;47.808;7.636;2023-11-19T00:26:15;11.50;99.90
21031;DHT22;61072;47.808;7.636;2023-11-19T00:28:41;11.50;99.90
21031;DHT22;61072;47.808;7.636;2023-11-19T00:31:09;11.60;99.90
21031;DHT22;61072;47.808;7.636;2023-11-19T00:33:36;11.60;99.90
21031;DHT22;61072;47.808;7.636;2023-11-19T00:36:15;11.70;99.90
21031;DHT22;61072;47.808;7.636;2023-11-19T00:38:42;11.70;99.90
21031;DHT22;61072;47.808;7.636;2023-11-19T00:41:09;11.70;99.90
21031;DHT22;61072;47.808;7.636;2023-11-19T00:43:36;11.70;99.90
21031;DHT22;61072;47.808;7.636;2023-11-19T00:46:03;11.80;99.90
21031;DHT22;61072;47.808;7.636;2023-11-19T00:48:33;11.80;99.90
21031;DHT22;61072;47.808;7.636;2023-11-19T00:51:00;11.80;99.90
21031;DHT22;61072;47.808;7.636;2023-11-19T00:53:26;11.80;99.90
21031;DHT22;61072;47.808;7.636;2023-11-19T00:55:53;11.90;99.90
21031;DHT22;61072;47.808;7.636;2023-11-19T00:58:20;11.80;99.90
21031;DHT22;61072;47.808;7.636;2023-11-19T01:00:47;11.80;99.90
21031;DHT22;61072;47.808;7.636;2023-11-19T01:03:13;11.90;99.90
21031;DHT22;61072;47.808;7.636;2023-11-19T01:05:42;11.90;99.90
21031;DHT22;61072;47.808;7.636;2023-11-19T01:08:09;11.90;99.90
21031;DHT22;61072;47.808;7.636;2023-11-19T01:10:38;11.90;99.90
21031;DHT22;61072;47.808;7.636;2023-11-19T01:13:05;11.90;99.90
21031;DHT22;61072;47.808;7.636;2023-11-19T01:15:32;11.90;99.90
21031;DHT22;61072;47.808;7.636;2023-11-19T01:17:59;12.00;99.90
21031;DHT22;61072;47.808;7.636;2023-11-19T01:20:28;12.00;99.90
21031;DHT22;61072;47.808;7.636;2023-11-19T01:22:55;12.00;99.90
21031;DHT22;61072;47.808;7.636;2023-11-19T01:25:22;12.00;99.90
21031;DHT22;61072;47.808;7.636;2023-11-19T01:27:49;12.00;99.90
21031;DHT22;61072;47.808;7.636;2023-11-19T01:30:17;12.00;99.90
21031;DHT22;61072;47.808;7.636;2023-11-19T01:32:43;12.10;99.90
21031;DHT22;61072;47.808;7.636;2023-11-19T01:35:10;12.10;99.90
21031;DHT22;61072;47.808;7.636;2023-11-19T01:37:37;12.10;99.90
21031;DHT22;61072;47.808;7.636;2023-11-19T01:40:04;12.10;99.90
21031;DHT22;61072;47.808;7.636;2023-11-19T01:42:39;12.20;99.90
21031;DHT22;61072;47.808;7.636;2023-11-19T01:45:07;12.20;99.90
21031;DHT22;61072;47.808;7.636;2023-11-19T01:47:35;12.20;99.90
21031;DHT22;61072;47.808;7.636;2023-11-19T01:50:03;12.30;99.90
21031;DHT22;61072;47.808;7.636;2023-11-19T01:52:34;12.30;99.90
21031;DHT22;61072;47.808;7.636;2023-11-19T01:55:04;12.30;99.90
21031;DHT22;61072;47.808;7.636;2023-11-19T01:57:31;12.30;99.90
21031;DHT22;61072;47.808;7.636;2023-11-19T01:59:58;12.30;99.90
21031;DHT22;61072;47.808;7.636;2023-11-19T02:02:25;12.30;99.90
21031;DHT22;61072;47.808;7.636;2023-11-19T02:04:53;12.30;99.90
21031;DHT22;61072;47.808;7.636;2023-11-19T02:07:20;12.40;99.90
21031;DHT22;61072;47.808;7.636;2023-11-19T02:09:47;12.30;99.90
21031;DHT22;61072;47.808;7.636;2023-11-19T02:12:14;12.30;99.90
21031;DHT22;61072;47.808;7.636;2023-11-19T02:14:41;12.20;99.90
21031;DHT22;61072;47.808;7.636;2023-11-19T02:17:27;12.20;99.90
21031;DHT22;61072;47.808;7.636;2023-11-19T02:19:54;12.10;99.90
21031;DHT22;61072;47.808;7.636;2023-11-19T02:22:22;12.10;99.90
21031;DHT22;61072;47.808;7.636;2023-11-19T02:24:55;12.00;99.90
21031;DHT22;61072;47.808;7.636;2023-11-19T02:30:06;12.00;99.90
21031;DHT22;61072;47.808;7.636;2023-11-19T02:32:35;11.90;99.90
21031;DHT22;61072;47.808;7.636;2023-11-19T02:35:02;11.90;99.90
21031;DHT22;61072;47.808;7.636;2023-11-19T02:37:32;11.90;99.90
21031;DHT22;61072;47.808;7.636;2023-11-19T02:39:58;11.90;99.90
21031;DHT22;61072;47.808;7.636;2023-11-19T02:42:36;11.80;99.90
21031;DHT22;61072;47.808;7.636;2023-11-19T02:45:03;11.80;99.90
21031;DHT22;61072;47.808;7.636;2023-11-19T02:47:33;11.80;99.90
21031;DHT22;61072;47.808;7.636;2023-11-19T02:50:00;11.80;99.90
21031;DHT22;61072;47.808;7.636;2023-11-19T02:52:27;11.70;99.90
21031;DHT22;61072;47.808;7.636;2023-11-19T02:54:54;11.70;99.90
21031;DHT22;61072;47.808;7.636;2023-11-19T02:57:22;11.70;99.90
21031;DHT22;61072;47.808;7.636;2023-11-19T02:59:49;11.70;99.90
21031;DHT22;61072;47.808;7.636;2023-11-19T03:02:16;11.60;99.90
21031;DHT22;61072;47.808;7.636;2023-11-19T03:04:44;11.70;99.90
21031;DHT22;61072;47.808;7.636;2023-11-19T03:07:12;11.70;99.90
21031;DHT22;61072;47.808;7.636;2023-11-19T03:09:40;11.70;99.90
21031;DHT22;61072;47.808;7.636;2023-11-19T03:12:07;11.70;99.90
21031;DHT22;61072;47.808;7.636;2023-11-19T03:14:34;11.60;99.90
21031;DHT22;61072;47.808;7.636;2023-11-19T03:17:01;11.60;99.90
21031;DHT22;61072;47.808;7.636;2023-11-19T03:19:28;11.60;99.90
21031;DHT22;61072;47.808;7.636;2023-11-19T03:21:55;11.60;99.90
21031;DHT22;61072;47.808;7.636;2023-11-19T03:24:22;11.60;99.90
21031;DHT22;61072;47.808;7.636;2023-11-19T03:26:49;11.60;99.90
21031;DHT22;61072;47.808;7.636;2023-11-19T03:29:19;11.60;99.90
21031;DHT22;61072;47.808;7.636;2023-11-19T03:31:46;11.60;99.90
21031;DHT22;61072;47.808;7.636;2023-11-19T03:34:12;11.60;99.90
21031;DHT22;61072;47.808;7.636;2023-11-19T03:36:39;11.60;99.90
21031;DHT22;61072;47.808;7.636;2023-11-19T03:39:06;11.60;99.90
21031;DHT22;61072;47.808;7.636;2023-11-19T03:41:33;11.50;99.90
21031;DHT22;61072;47.808;7.636;2023-11-19T03:44:03;11.50;99.90
21031;DHT22;61072;47.808;7.636;2023-11-19T03:46:30;11.50;99.90
21031;DHT22;61072;47.808;7.636;2023-11-19T03:48:57;11.50;99.90
21031;DHT22;61072;47.808;7.636;2023-11-19T03:51:23;11.50;99.90
21031;DHT22;61072;47.808;7.636;2023-11-19T03:53:50;11.50;99.90
21031;DHT22;61072;47.808;7.636;2023-11-19T03:56:17;11.50;99.90
21031;DHT22;61072;47.808;7.636;2023-11-19T03:58:44;11.50;99.90
21031;DHT22;61072;47.808;7.636;2023-11-19T04:01:11;11.50;99.90
21031;DHT22;61072;47.808;7.636;2023-11-19T04:03:41;11.50;99.90
21031;DHT22;61072;47.808;7.636;2023-11-19T04:06:11;11.50;99.90
21031;DHT22;61072;47.808;7.636;2023-11-19T04:08:38;11.50;99.90
21031;DHT22;61072;47.808;7.636;2023-11-19T04:11:04;11.50;99.90
21031;DHT22;61072;47.808;7.636;2023-11-19T04:13:31;11.50;99.90
21031;DHT22;61072;47.808;7.636;2023-11-19T04:15:59;11.50;99.90
21031;DHT22;61072;47.808;7.636;2023-11-19T04:18:26;11.50;99.90
21031;DHT22;61072;47.808;7.636;2023-11-19T04:20:52;11.50;99.90
21031;DHT22;61072;47.808;7.636;2023-11-19T04:23:19;11.60;99.90
21031;DHT22;61072;47.808;7.636;2023-11-19T04:25:46;11.50;99.90
21031;DHT22;61072;47.808;7.636;2023-11-19T04:28:12;11.50;99.90
21031;DHT22;61072;47.808;7.636;2023-11-19T04:30:39;11.60;99.90
21031;DHT22;61072;47.808;7.636;2023-11-19T04:33:06;11.60;99.90
21031;DHT22;61072;47.808;7.636;2023-11-19T04:35:33;11.60;99.90
21031;DHT22;61072;47.808;7.636;2023-11-19T04:37:59;11.60;99.90
21031;DHT22;61072;47.808;7.636;2023-11-19T04:40:26;11.60;99.90
21031;DHT22;61072;47.808;7.636;2023-11-19T04:42:53;11.70;99.90
21031;DHT22;61072;47.808;7.636;2023-11-19T04:45:20;11.70;99.90
21031;DHT22;61072;47.808;7.636;2023-11-19T04:47:46;11.70;99.90
21031;DHT22;61072;47.808;7.636;2023-11-19T04:50:13;11.60;99.90
21031;DHT22;61072;47.808;7.636;2023-11-19T04:52:40;11.70;99.90
21031;DHT22;61072;47.808;7.636;2023-11-19T04:55:07;11.70;99.90
21031;DHT22;61072;47.808;7.636;2023-11-19T04:57:34;11.70;99.90
21031;DHT22;61072;47.808;7.636;2023-11-19T05:00:01;11.70;99.90
21031;DHT22;61072;47.808;7.636;2023-11-19T05:02:28;11.70;99.90
21031;DHT22;61072;47.808;7.636;2023-11-19T05:04:54;11.70;99.90
21031;DHT22;61072;47.808;7.636;2023-11-19T05:07:21;11.70;99.90
21031;DHT22;61072;47.808;7.636;2023-11-19T05:09:48;11.70;99.90
21031;DHT22;61072;47.808;7.636;2023-11-19T05:12:15;11.70;99.90
21031;DHT22;61072;47.808;7.636;2023-11-19T05:14:41;11.80;99.90
21031;DHT22;61072;47.808;7.636;2023-11-19T05:17:17;11.70;99.90
21031;DHT22;61072;47.808;7.636;2023-11-19T05:19:45;11.80;99.90
21031;DHT22;61072;47.808;7.636;2023-11-19T05:22:12;11.80;99.90
21031;DHT22;61072;47.808;7.636;2023-11-19T05:24:39;11.80;99.90
21031;DHT22;61072;47.808;7.636;2023-11-19T05:27:07;11.80;99.90
21031;DHT22;61072;47.808;7.636;2023-11-19T05:29:34;11.80;99.90
21031;DHT22;61072;47.808;7.636;2023-11-19T05:32:01;11.90;99.90
21031;DHT22;61072;47.808;7.636;2023-11-19T05:34:28;11.90;99.90
21031;DHT22;61072;47.808;7.636;2023-11-19T05:36:55;11.90;99.90
21031;DHT22;61072;47.808;7.636;2023-11-19T05:39:22;11.90;99.90
21031;DHT22;61072;47.808;7.636;2023-11-19T05:41:49;11.90;99.90
21031;DHT22;61072;47.808;7.636;2023-11-19T05:44:16;11.90;99.90
21031;DHT22;61072;47.808;7.636;2023-11-19T05:46:43;12.00;99.90
21031;DHT22;61072;47.808;7.636;2023-11-19T05:49:11;12.00;99.90
21031;DHT22;61072;47.808;7.636;2023-11-19T05:51:38;12.00;99.90
21031;DHT22;61072;47.808;7.636;2023-11-19T05:54:10;12.00;99.90
21031;DHT22;61072;47.808;7.636;2023-11-19T05:56:37;12.00;99.90
21031;DHT22;61072;47.808;7.636;2023-11-19T05:59:04;12.00;99.90
21031;DHT22;61072;47.808;7.636;2023-11-19T06:01:34;12.10;99.90
21031;DHT22;61072;47.808;7.636;2023-11-19T06:04:01;12.10;99.90
21031;DHT22;61072;47.808;7.636;2023-11-19T06:06:29;12.10;99.90
21031;DHT22;61072;47.808;7.636;2023-11-19T06:08:55;12.10;99.90
21031;DHT22;61072;47.808;7.636;2023-11-19T06:11:22;12.10;99.90
21031;DHT22;61072;47.808;7.636;2023-11-19T06:13:49;12.10;99.90
21031;DHT22;61072;47.808;7.636;2023-11-19T06:16:18;12.10;99.90
21031;DHT22;61072;47.808;7.636;2023-11-19T06:18:45;12.20;99.90
21031;DHT22;61072;47.808;7.636;2023-11-19T06:21:12;12.20;99.90
21031;DHT22;61072;47.808;7.636;2023-11-19T06:23:39;12.20;99.90
21031;DHT22;61072;47.808;7.636;2023-11-19T06:26:06;12.20;99.90
21031;DHT22;61072;47.808;7.636;2023-11-19T06:28:32;12.20;99.90
21031;DHT22;61072;47.808;7.636;2023-11-19T06:30:59;12.20;99.90
21031;DHT22;61072;47.808;7.636;2023-11-19T06:33:26;12.20;99.90
21031;DHT22;61072;47.808;7.636;2023-11-19T06:35:53;12.20;99.90
21031;DHT22;61072;47.808;7.636;2023-11-19T06:38:21;12.20;99.90
21031;DHT22;61072;47.808;7.636;2023-11-19T06:40:48;12.20;99.90
21031;DHT22;61072;47.808;7.636;2023-11-19T06:43:19;12.30;99.90
21031;DHT22;61072;47.808;7.636;2023-11-19T06:45:46;12.20;99.90
21031;DHT22;61072;47.808;7.636;2023-11-19T06:48:12;12.30;99.90
21031;DHT22;61072;47.808;7.636;2023-11-19T06:50:39;12.30;99.90
21031;DHT22;61072;47.808;7.636;2023-11-19T06:53:06;12.30;99.90
21031;DHT22;61072;47.808;7.636;2023-11-19T06:55:36;12.20;99.90
21031;DHT22;61072;47.808;7.636;2023-11-19T06:58:03;12.30;99.90
21031;DHT22;61072;47.808;7.636;2023-11-19T07:00:30;12.30;99.90
21031;DHT22;61072;47.808;7.636;2023-11-19T07:02:59;12.30;99.90
21031;DHT22;61072;47.808;7.636;2023-11-19T07:05:26;12.30;99.90
21031;DHT22;61072;47.808;7.636;2023-11-19T07:07:53;12.30;99.90
21031;DHT22;61072;47.808;7.636;2023-11-19T07:10:21;12.30;99.90
21031;DHT22;61072;47.808;7.636;2023-11-19T07:12:48;12.40;99.90
21031;DHT22;61072;47.808;7.636;2023-11-19T07:15:16;12.40;99.90
21031;DHT22;61072;47.808;7.636;2023-11-19T07:17:44;12.40;99.90
21031;DHT22;61072;47.808;7.636;2023-11-19T07:20:12;12.40;99.90
21031;DHT22;61072;47.808;7.636;2023-11-19T07:22:43;12.40;99.90
21031;DHT22;61072;47.808;7.636;2023-11-19T07:25:15;12.40;99.90
21031;DHT22;61072;47.808;7.636;2023-11-19T07:27:42;12.40;99.90
21031;DHT22;61072;47.808;7.636;2023-11-19T07:30:09;12.50;99.90
21031;DHT22;61072;47.808;7.636;2023-11-19T07:32:36;12.50;99.90
21031;DHT22;61072;47.808;7.636;2023-11-19T07:35:06;12.50;99.90
21031;DHT22;61072;47.808;7.636;2023-11-19T07:37:32;12.50;99.90
21031;DHT22;61072;47.808;7.636;2023-11-19T07:39:59;12.50;99.90
21031;DHT22;61072;47.808;7.636;2023-11-19T07:42:26;12.60;99.90
21031;DHT22;61072;47.808;7.636;2023-11-19T07:44:53;12.60;99.90
21031;DHT22;61072;47.808;7.636;2023-11-19T07:47:22;12.60;99.90
21031;DHT22;61072;47.808;7.636;2023-11-19T07:49:50;12.60;99.90
21031;DHT22;61072;47.808;7.636;2023-11-19T07:52:17;12.60;99.90
21031;DHT22;61072;47.808;7.636;2023-11-19T07:54:47;12.70;99.90
21031;DHT22;61072;47.808;7.636;2023-11-19T07:57:13;12.70;99.90
21031;DHT22;61072;47.808;7.636;2023-11-19T07:59:40;12.70;99.90
21031;DHT22;61072;47.808;7.636;2023-11-19T08:02:07;12.70;99.90
21031;DHT22;61072;47.808;7.636;2023-11-19T08:04:34;12.70;99.90
21031;DHT22;61072;47.808;7.636;2023-11-19T08:07:01;12.70;99.90
21031;DHT22;61072;47.808;7.636;2023-11-19T08:09:28;12.80;99.90
21031;DHT22;61072;47.808;7.636;2023-11-19T08:11:55;12.80;99.90
21031;DHT22;61072;47.808;7.636;2023-11-19T08:14:23;12.80;99.90
21031;DHT22;61072;47.808;7.636;2023-11-19T08:16:50;12.80;99.90
21031;DHT22;61072;47.808;7.636;2023-11-19T08:19:17;12.80;99.90
21031;DHT22;61072;47.808;7.636;2023-11-19T08:21:44;12.80;99.90
21031;DHT22;61072;47.808;7.636;2023-11-19T08:24:11;12.80;99.90
21031;DHT22;61072;47.808;7.636;2023-11-19T08:26:38;12.80;99.90
21031;DHT22;61072;47.808;7.636;2023-11-19T08:29:05;12.90;99.90
21031;DHT22;61072;47.808;7.636;2023-11-19T08:31:32;12.80;99.90
21031;DHT22;61072;47.808;7.636;2023-11-19T08:33:59;12.80;99.90
21031;DHT22;61072;47.808;7.636;2023-11-19T08:36:25;12.90;99.90
21031;DHT22;61072;47.808;7.636;2023-11-19T08:38:52;12.90;99.90
21031;DHT22;61072;47.808;7.636;2023-11-19T08:41:19;12.90;99.90
21031;DHT22;61072;47.808;7.636;2023-11-19T08:43:46;13.00;99.90
21031;DHT22;61072;47.808;7.636;2023-11-19T08:46:13;13.00;99.90
21031;DHT22;61072;47.808;7.636;2023-11-19T08:48:40;13.00;99.90
21031;DHT22;61072;47.808;7.636;2023-11-19T08:51:07;13.10;99.90
21031;DHT22;61072;47.808;7.636;2023-11-19T08:53:34;13.10;99.90
21031;DHT22;61072;47.808;7.636;2023-11-19T08:56:01;13.10;99.90
21031;DHT22;61072;47.808;7.636;2023-11-19T08:58:29;13.10;99.90
21031;DHT22;61072;47.808;7.636;2023-11-19T09:00:57;13.10;99.90
21031;DHT22;61072;47.808;7.636;2023-11-19T09:03:24;13.10;99.90
21031;DHT22;61072;47.808;7.636;2023-11-19T09:05:57;13.20;99.90
21031;DHT22;61072;47.808;7.636;2023-11-19T09:08:23;13.20;99.90
21031;DHT22;61072;47.808;7.636;2023-11-19T09:10:50;13.30;99.90
21031;DHT22;61072;47.808;7.636;2023-11-19T09:13:17;13.30;99.90
21031;DHT22;61072;47.808;7.636;2023-11-19T09:15:44;13.30;99.90
21031;DHT22;61072;47.808;7.636;2023-11-19T09:18:11;13.30;99.90
21031;DHT22;61072;47.808;7.636;2023-11-19T09:20:38;13.40;99.90
21031;DHT22;61072;47.808;7.636;2023-11-19T09:23:06;13.40;99.90
21031;DHT22;61072;47.808;7.636;2023-11-19T09:25:33;13.40;99.90
21031;DHT22;61072;47.808;7.636;2023-11-19T09:28:03;13.40;99.90
21031;DHT22;61072;47.808;7.636;2023-11-19T09:30:30;13.40;99.90
21031;DHT22;61072;47.808;7.636;2023-11-19T09:33:00;13.40;99.90
21031;DHT22;61072;47.808;7.636;2023-11-19T09:35:27;13.40;99.90
21031;DHT22;61072;47.808;7.636;2023-11-19T09:37:54;13.40;99.90
21031;DHT22;61072;47.808;7.636;2023-11-19T09:40:21;13.40;99.90
21031;DHT22;61072;47.808;7.636;2023-11-19T09:42:47;13.40;99.90
21031;DHT22;61072;47.808;7.636;2023-11-19T09:45:16;13.30;99.90
21031;DHT22;61072;47.808;7.636;2023-11-19T09:47:44;13.30;99.90
21031;DHT22;61072;47.808;7.636;2023-11-19T09:50:18;13.30;99.90
21031;DHT22;61072;47.808;7.636;2023-11-19T09:52:46;13.40;99.90
21031;DHT22;61072;47.808;7.636;2023-11-19T09:55:14;13.30;99.90
21031;DHT22;61072;47.808;7.636;2023-11-19T09:57:41;13.30;99.90
21031;DHT22;61072;47.808;7.636;2023-11-19T10:00:08;13.40;99.90
21031;DHT22;61072;47.808;7.636;2023-11-19T10:02:37;13.40;99.90
21031;DHT22;61072;47.808;7.636;2023-11-19T10:05:09;13.40;99.90
21031;DHT22;61072;47.808;7.636;2023-11-19T10:07:37;13.40;99.90
21031;DHT22;61072;47.808;7.636;2023-11-19T10:10:04;13.40;99.90
21031;DHT22;61072;47.808;7.636;2023-11-19T10:12:31;13.40;99.90
21031;DHT22;61072;47.808;7.636;2023-11-19T10:14:59;13.40;99.90
21031;DHT22;61072;47.808;7.636;2023-11-19T10:17:29;13.40;99.90
21031;DHT22;61072;47.808;7.636;2023-11-19T10:19:59;13.40;99.90
21031;DHT22;61072;47.808;7.636;2023-11-19T10:22:27;13.40;99.90
21031;DHT22;61072;47.808;7.636;2023-11-19T10:24:54;13.50;99.90
21031;DHT22;61072;47.808;7.636;2023-11-19T10:27:24;13.50;99.90
21031;DHT22;61072;47.808;7.636;2023-11-19T10:29:52;13.50;99.90
21031;DHT22;61072;47.808;7.636;2023-11-19T10:32:19;13.50;99.90
21031;DHT22;61072;47.808;7.636;2023-11-19T10:35:04;13.60;99.90
21031;DHT22;61072;47.808;7.636;2023-11-19T10:37:31;13.60;99.90
21031;DHT22;61072;47.808;7.636;2023-11-19T10:39:59;13.60;99.90
21031;DHT22;61072;47.808;7.636;2023-11-19T10:42:26;13.60;99.90
21031;DHT22;61072;47.808;7.636;2023-11-19T10:44:53;13.60;99.90
21031;DHT22;61072;47.808;7.636;2023-11-19T10:47:19;13.70;99.90
21031;DHT22;61072;47.808;7.636;2023-11-19T10:50:04;13.70;99.90
21031;DHT22;61072;47.808;7.636;2023-11-19T10:52:33;13.70;99.90
21031;DHT22;61072;47.808;7.636;2023-11-19T10:55:00;13.70;99.90
21031;DHT22;61072;47.808;7.636;2023-11-19T10:57:30;13.70;99.90
21031;DHT22;61072;47.808;7.636;2023-11-19T11:00:02;13.70;99.90
21031;DHT22;61072;47.808;7.636;2023-11-19T11:02:33;13.70;99.90
21031;DHT22;61072;47.808;7.636;2023-11-19T11:05:02;13.70;99.90
21031;DHT22;61072;47.808;7.636;2023-11-19T11:07:31;13.70;99.90
21031;DHT22;61072;47.808;7.636;2023-11-19T11:10:07;13.70;99.90
21031;DHT22;61072;47.808;7.636;2023-11-19T11:12:37;13.80;99.90
21031;DHT22;61072;47.808;7.636;2023-11-19T11:15:06;13.80;99.90
21031;DHT22;61072;47.808;7.636;2023-11-19T11:17:33;13.80;99.90
21031;DHT22;61072;47.808;7.636;2023-11-19T11:20:01;13.80;99.90
21031;DHT22;61072;47.808;7.636;2023-11-19T11:22:35;13.80;99.90
21031;DHT22;61072;47.808;7.636;2023-11-19T11:25:41;13.80;99.90
21031;DHT22;61072;47.808;7.636;2023-11-19T11:28:54;13.80;99.90
21031;DHT22;61072;47.808;7.636;2023-11-19T11:36:48;13.80;99.90
21031;DHT22;61072;47.808;7.636;2023-11-19T11:39:21;13.80;99.90
21031;DHT22;61072;47.808;7.636;2023-11-19T11:50:28;13.80;99.90
21031;DHT22;61072;47.808;7.636;2023-11-19T11:55:35;13.80;99.90
21031;DHT22;61072;47.808;7.636;2023-11-19T11:58:03;13.80;99.90
21031;DHT22;61072;47.808;7.636;2023-11-19T12:00:32;13.70;99.90
21031;DHT22;61072;47.808;7.636;2023-11-19T12:03:00;13.80;99.90
21031;DHT22;61072;47.808;7.636;2023-11-19T12:05:28;13.80;99.90
21031;DHT22;61072;47.808;7.636;2023-11-19T12:07:57;13.80;99.90
21031;DHT22;61072;47.808;7.636;2023-11-19T12:10:31;13.80;99.90
21031;DHT22;61072;47.808;7.636;2023-11-19T12:13:00;13.80;99.90
21031;DHT22;61072;47.808;7.636;2023-11-19T12:15:28;13.80;99.90
21031;DHT22;61072;47.808;7.636;2023-11-19T12:17:55;13.80;99.90
21031;DHT22;61072;47.808;7.636;2023-11-19T12:20:24;13.70;99.90
21031;DHT22;61072;47.808;7.636;2023-11-19T12:22:54;13.70;99.90
21031;DHT22;61072;47.808;7.636;2023-11-19T12:25:21;13.70;99.90
21031;DHT22;61072;47.808;7.636;2023-11-19T12:27:50;13.80;99.90
21031;DHT22;61072;47.808;7.636;2023-11-19T12:30:21;13.70;99.90
21031;DHT22;61072;47.808;7.636;2023-11-19T12:32:49;13.70;99.90
21031;DHT22;61072;47.808;7.636;2023-11-19T12:35:16;13.70;99.90
21031;DHT22;61072;47.808;7.636;2023-11-19T12:37:44;13.70;99.90
21031;DHT22;61072;47.808;7.636;2023-11-19T12:40:12;13.80;99.90
21031;DHT22;61072;47.808;7.636;2023-11-19T12:42:39;13.80;99.90
21031;DHT22;61072;47.808;7.636;2023-11-19T12:45:06;13.80;99.90
21031;DHT22;61072;47.808;7.636;2023-11-19T12:47:34;13.80;99.90
21031;DHT22;61072;47.808;7.636;2023-11-19T12:50:01;13.80;99.90
21031;DHT22;61072;47.808;7.636;2023-11-19T12:52:28;13.80;99.90
21031;DHT22;61072;47.808;7.636;2023-11-19T12:54:55;13.90;99.90
21031;DHT22;61072;47.808;7.636;2023-11-19T12:57:38;13.90;99.90
21031;DHT22;61072;47.808;7.636;2023-11-19T13:00:06;14.00;99.90
21031;DHT22;61072;47.808;7.636;2023-11-19T13:02:53;14.00;99.90
21031;DHT22;61072;47.808;7.636;2023-11-19T13:05:31;14.10;99.90
21031;DHT22;61072;47.808;7.636;2023-11-19T13:08:04;14.10;99.90
21031;DHT22;61072;47.808;7.636;2023-11-19T13:13:16;14.20;99.90
21031;DHT22;61072;47.808;7.636;2023-11-19T13:15:43;14.20;99.90
21031;DHT22;61072;47.808;7.636;2023-11-19T13:18:12;14.20;99.90
21031;DHT22;61072;47.808;7.636;2023-11-19T13:20:39;14.20;99.90
21031;DHT22;61072;47.808;7.636;2023-11-19T13:23:06;14.30;99.90
21031;DHT22;61072;47.808;7.636;2023-11-19T13:25:37;14.30;99.90
21031;DHT22;61072;47.808;7.636;2023-11-19T13:28:03;14.30;99.90
21031;DHT22;61072;47.808;7.636;2023-11-19T13:30:30;14.30;99.90
21031;DHT22;61072;47.808;7.636;2023-11-19T13:32:57;14.30;99.90
21031;DHT22;61072;47.808;7.636;2023-11-19T13:35:24;14.30;99.90
21031;DHT22;61072;47.808;7.636;2023-11-19T13:37:51;14.30;99.90
21031;DHT22;61072;47.808;7.636;2023-11-19T13:40:18;14.30;99.90
21031;DHT22;61072;47.808;7.636;2023-11-19T13:42:46;14.20;99.90
21031;DHT22;61072;47.808;7.636;2023-11-19T13:45:14;14.20;99.90
21031;DHT22;61072;47.808;7.636;2023-11-19T13:47:43;14.20;99.90
21031;DHT22;61072;47.808;7.636;2023-11-19T13:50:12;14.20;99.90
21031;DHT22;61072;47.808;7.636;2023-11-19T13:52:40;14.10;99.90
21031;DHT22;61072;47.808;7.636;2023-11-19T13:55:09;14.00;99.90
21031;DHT22;61072;47.808;7.636;2023-11-19T13:57:40;14.00;99.90
21031;DHT22;61072;47.808;7.636;2023-11-19T14:00:08;13.90;99.90
21031;DHT22;61072;47.808;7.636;2023-11-19T14:02:46;13.90;99.90
21031;DHT22;61072;47.808;7.636;2023-11-19T14:05:14;13.80;99.90
21031;DHT22;61072;47.808;7.636;2023-11-19T14:07:44;13.80;99.90
21031;DHT22;61072;47.808;7.636;2023-11-19T14:10:11;13.70;99.90
21031;DHT22;61072;47.808;7.636;2023-11-19T14:12:38;13.60;99.90
21031;DHT22;61072;47.808;7.636;2023-11-19T14:15:09;13.60;99.90
21031;DHT22;61072;47.808;7.636;2023-11-19T14:17:36;13.60;99.90
21031;DHT22;61072;47.808;7.636;2023-11-19T14:20:03;13.60;99.90
21031;DHT22;61072;47.808;7.636;2023-11-19T14:22:40;13.60;99.90
21031;DHT22;61072;47.808;7.636;2023-11-19T14:25:07;13.60;99.90
21031;DHT22;61072;47.808;7.636;2023-11-19T14:27:40;13.60;99.90
21031;DHT22;61072;47.808;7.636;2023-11-19T14:30:08;13.60;99.90
21031;DHT22;61072;47.808;7.636;2023-11-19T14:32:38;13.60;99.90
21031;DHT22;61072;47.808;7.636;2023-11-19T14:35:05;13.70;99.90
21031;DHT22;61072;47.808;7.636;2023-11-19T14:37:33;13.70;99.90
21031;DHT22;61072;47.808;7.636;2023-11-19T14:40:00;13.70;99.90
21031;DHT22;61072;47.808;7.636;2023-11-19T14:42:28;13.70;99.90
21031;DHT22;61072;47.808;7.636;2023-11-19T14:44:55;13.70;99.90
21031;DHT22;61072;47.808;7.636;2023-11-19T14:47:22;13.70;99.90
21031;DHT22;61072;47.808;7.636;2023-11-19T14:49:49;13.70;99.90
21031;DHT22;61072;47.808;7.636;2023-11-19T14:52:15;13.80;99.90
21031;DHT22;61072;47.808;7.636;2023-11-19T14:54:44;13.80;99.90
21031;DHT22;61072;47.808;7.636;2023-11-19T14:57:10;13.80;99.90
21031;DHT22;61072;47.808;7.636;2023-11-19T14:59:37;13.80;99.90
21031;DHT22;61072;47.808;7.636;2023-11-19T15:02:05;13.90;99.90
21031;DHT22;61072;47.808;7.636;2023-11-19T15:04:32;13.90;99.90
21031;DHT22;61072;47.808;7.636;2023-11-19T15:06:59;13.90;99.90
21031;DHT22;61072;47.808;7.636;2023-11-19T15:09:26;13.90;99.90
21031;DHT22;61072;47.808;7.636;2023-11-19T15:11:53;13.90;99.90
21031;DHT22;61072;47.808;7.636;2023-11-19T15:14:20;13.90;99.90
21031;DHT22;61072;47.808;7.636;2023-11-19T15:16:48;13.90;99.90
21031;DHT22;61072;47.808;7.636;2023-11-19T15:19:18;13.90;99.90
21031;DHT22;61072;47.808;7.636;2023-11-19T15:21:46;13.90;99.90
21031;DHT22;61072;47.808;7.636;2023-11-19T15:24:13;14.00;99.90
21031;DHT22;61072;47.808;7.636;2023-11-19T15:26:40;14.00;99.90
21031;DHT22;61072;47.808;7.636;2023-11-19T15:29:07;14.00;99.90
21031;DHT22;61072;47.808;7.636;2023-11-19T15:31:33;13.90;99.90
21031;DHT22;61072;47.808;7.636;2023-11-19T15:34:00;13.90;99.90
21031;DHT22;61072;47.808;7.636;2023-11-19T15:36:27;13.90;99.90
21031;DHT22;61072;47.808;7.636;2023-11-19T15:38:54;13.90;99.90
21031;DHT22;61072;47.808;7.636;2023-11-19T15:41:21;13.90;99.90
21031;DHT22;61072;47.808;7.636;2023-11-19T15:43:47;13.90;99.90
21031;DHT22;61072;47.808;7.636;2023-11-19T15:46:14;13.90;99.90
21031;DHT22;61072;47.808;7.636;2023-11-19T15:48:42;13.90;99.90
21031;DHT22;61072;47.808;7.636;2023-11-19T15:51:09;13.90;99.90
21031;DHT22;61072;47.808;7.636;2023-11-19T15:53:36;13.90;99.90
21031;DHT22;61072;47.808;7.636;2023-11-19T15:56:03;13.90;99.90
21031;DHT22;61072;47.808;7.636;2023-11-19T15:58:30;13.80;99.90